Time;durP1;ratioP1;P1;durP2;ratioP2;P2;SDS_P1;SDS_P2;PMS_P1;PMS_P2;Temp;Humidity;BMP_temperature;BMP_pressure;BME280_temperature;BME280_humidity;BME280_pressure;Samples;Min_cycle;Max_cycle;Signal;HPM_P1;HPM_P2
2022/03/01 00:01:23;;;;;;;15.85;10.55;;;2.70;99.90;;;;;;5027957;28;20048;-87
2022/03/01 00:03:49;;;;;;;16.33;10.32;;;2.70;99.90;;;;;;4999857;28;20048;-87
2022/03/01 00:06:14;;;;;;;16.50;9.85;;;2.70;99.90;;;;;;5034379;28;20411;-87
2022/03/01 00:08:40;;;;;;;15.63;9.65;;;2.60;99.90;;;;;;5017605;28;20038;-88
2022/03/01 00:11:05;;;;;;;14.40;9.48;;;2.60;99.90;;;;;;5024503;28;20044;-88
2022/03/01 00:13:31;;;;;;;15.75;10.07;;;2.60;99.90;;;;;;5029021;28;20098;-88
2022/03/01 00:15:56;;;;;;;15.15;10.38;;;2.60;99.90;;;;;;5014943;28;20033;-87
2022/03/01 00:18:22;;;;;;;16.20;9.80;;;2.60;99.90;;;;;;5019565;28;20037;-88
2022/03/01 00:20:48;;;;;;;15.45;9.88;;;2.50;99.90;;;;;;5027833;28;20060;-88
2022/03/01 00:23:13;;;;;;;15.80;10.18;;;2.40;99.90;;;;;;5031063;28;20045;-88
2022/03/01 00:25:39;;;;;;;13.90;9.73;;;2.50;99.90;;;;;;5020370;28;20045;-87
2022/03/01 00:28:04;;;;;;;15.05;9.57;;;2.40;99.90;;;;;;5017412;28;20565;-88
2022/03/01 00:30:30;;;;;;;14.77;9.77;;;2.40;99.90;;;;;;5047195;28;20025;-88
2022/03/01 00:32:55;;;;;;;13.95;9.27;;;2.40;99.90;;;;;;5023502;28;20036;-88
2022/03/01 00:35:21;;;;;;;15.15;10.32;;;2.30;99.90;;;;;;5022241;28;20140;-88
2022/03/01 00:37:47;;;;;;;16.35;9.40;;;2.30;99.90;;;;;;5027638;28;20048;-88
2022/03/01 00:40:13;;;;;;;14.52;10.52;;;2.30;99.90;;;;;;5023078;28;20060;-88
2022/03/01 00:42:38;;;;;;;13.80;9.45;;;2.20;99.90;;;;;;5014818;28;20083;-87
2022/03/01 00:45:04;;;;;;;18.80;10.70;;;2.20;99.90;;;;;;5030332;28;20034;-87
2022/03/01 00:47:30;;;;;;;15.43;9.60;;;2.30;99.90;;;;;;5000325;28;20037;-88
2022/03/01 00:49:57;;;;;;;16.77;9.65;;;2.20;99.90;;;;;;5024546;28;20038;-87
2022/03/01 00:52:23;;;;;;;14.50;9.73;;;2.20;99.90;;;;;;5029453;28;20046;-88
2022/03/01 00:54:49;;;;;;;14.70;9.65;;;2.20;99.90;;;;;;5029586;28;20037;-87
2022/03/01 00:57:14;;;;;;;14.35;9.77;;;2.10;99.90;;;;;;5034373;28;20041;-87
2022/03/01 00:59:40;;;;;;;17.20;9.63;;;2.10;99.90;;;;;;5034286;28;20140;-87
2022/03/01 01:02:05;;;;;;;14.18;9.32;;;2.10;99.90;;;;;;5029581;28;20530;-87
2022/03/01 01:04:31;;;;;;;14.82;9.50;;;2.00;99.90;;;;;;5047461;28;20087;-87
2022/03/01 01:06:56;;;;;;;15.52;9.55;;;2.10;99.90;;;;;;5017585;28;20041;-87
2022/03/01 01:09:22;;;;;;;14.93;9.75;;;2.10;99.90;;;;;;5022390;28;20037;-86
2022/03/01 01:11:58;;;;;;;15.40;9.15;;;2.10;99.90;;;;;;5011303;28;20534;-88
2022/03/01 01:14:24;;;;;;;14.38;9.77;;;2.10;99.90;;;;;;5009164;28;20049;-88
2022/03/01 01:16:49;;;;;;;16.15;9.55;;;2.10;99.90;;;;;;5017714;28;20037;-88
2022/03/01 01:19:15;;;;;;;15.40;10.30;;;2.10;99.90;;;;;;5017105;28;20107;-88
2022/03/01 01:24:24;;;;;;;15.10;9.43;;;2.00;99.90;;;;;;5022131;28;20045;-87
2022/03/01 01:26:50;;;;;;;15.60;9.88;;;2.00;99.90;;;;;;5023295;28;20034;-87
2022/03/01 01:29:16;;;;;;;14.18;9.52;;;2.00;99.90;;;;;;5021212;28;20028;-88
2022/03/01 01:31:41;;;;;;;14.20;9.48;;;2.10;99.90;;;;;;5019670;28;20038;-87
2022/03/01 01:34:07;;;;;;;15.65;9.35;;;2.10;99.90;;;;;;5030492;28;20029;-86
2022/03/01 01:36:32;;;;;;;15.77;9.80;;;2.10;99.90;;;;;;5028688;28;20051;-87
2022/03/01 01:38:58;;;;;;;20.10;9.88;;;2.00;99.90;;;;;;5029393;28;20033;-87
2022/03/01 01:41:24;;;;;;;14.82;9.98;;;2.00;99.90;;;;;;5032184;28;20040;-87
2022/03/01 01:43:49;;;;;;;16.70;10.07;;;2.00;99.90;;;;;;5032705;28;20043;-86
2022/03/01 01:46:15;;;;;;;16.55;9.68;;;2.00;99.90;;;;;;5030202;28;20040;-88
2022/03/01 01:48:40;;;;;;;14.45;9.52;;;1.90;99.90;;;;;;5019888;28;20045;-87
2022/03/01 01:51:06;;;;;;;15.40;9.57;;;2.00;99.90;;;;;;5031746;28;20045;-88
2022/03/01 01:53:32;;;;;;;18.67;10.25;;;2.00;99.90;;;;;;5028396;28;20076;-87
2022/03/01 01:55:57;;;;;;;13.88;9.48;;;1.90;99.90;;;;;;5021975;28;20590;-88
2022/03/01 01:58:23;;;;;;;18.63;9.77;;;1.90;99.90;;;;;;5017722;28;20046;-87
2022/03/01 02:00:48;;;;;;;14.35;9.02;;;1.90;99.90;;;;;;5025858;28;20037;-88
2022/03/01 02:03:15;;;;;;;17.38;10.00;;;1.90;99.90;;;;;;5040367;28;20032;-87
2022/03/01 02:05:41;;;;;;;16.67;10.00;;;1.80;99.90;;;;;;5035824;28;20467;-87
2022/03/01 02:08:06;;;;;;;15.88;9.65;;;1.90;99.90;;;;;;5021870;28;20076;-86
2022/03/01 02:10:32;;;;;;;17.05;10.13;;;1.80;99.90;;;;;;5049460;28;20044;-87
2022/03/01 02:12:59;;;;;;;16.25;10.45;;;1.80;99.90;;;;;;5041766;28;20325;-87
2022/03/01 02:15:26;;;;;;;15.98;9.77;;;1.80;99.90;;;;;;4998693;28;20090;-87
2022/03/01 02:17:51;;;;;;;16.15;9.75;;;1.80;99.90;;;;;;5023063;28;20049;-85
2022/03/01 02:20:19;;;;;;;16.02;9.90;;;1.80;99.90;;;;;;5033454;28;20021;-87
2022/03/01 02:22:46;;;;;;;18.15;10.40;;;1.80;99.90;;;;;;5034505;28;20076;-87
2022/03/01 02:25:13;;;;;;;17.05;10.15;;;1.80;99.90;;;;;;5019255;28;20034;-87
2022/03/01 02:27:39;;;;;;;17.10;9.73;;;1.80;99.90;;;;;;5015975;28;20663;-85
2022/03/01 02:30:07;;;;;;;17.95;10.63;;;1.80;99.90;;;;;;5018075;28;20132;-88
2022/03/01 02:32:33;;;;;;;14.02;8.82;;;1.80;99.90;;;;;;5010957;28;20042;-88
2022/03/01 02:35:00;;;;;;;16.27;9.80;;;1.80;99.90;;;;;;5030202;28;20438;-87
2022/03/01 02:37:25;;;;;;;15.83;10.10;;;1.80;99.90;;;;;;5031647;28;20033;-88
2022/03/01 02:39:53;;;;;;;16.35;9.68;;;1.80;99.90;;;;;;5032726;28;20047;-88
2022/03/01 02:42:20;;;;;;;15.67;9.57;;;1.80;99.90;;;;;;5015761;28;20037;-87
2022/03/01 02:44:46;;;;;;;16.05;9.57;;;1.80;99.90;;;;;;5017796;28;20052;-87
2022/03/01 02:47:11;;;;;;;15.13;10.00;;;1.80;99.90;;;;;;5017613;28;20044;-87
2022/03/01 02:49:37;;;;;;;15.15;10.20;;;1.70;99.90;;;;;;5021546;28;20120;-87
2022/03/01 02:52:03;;;;;;;16.85;9.93;;;1.70;99.90;;;;;;5031390;28;20084;-87
2022/03/01 02:54:28;;;;;;;17.40;10.25;;;1.70;99.90;;;;;;5017170;28;20033;-88
2022/03/01 02:56:59;;;;;;;14.77;9.73;;;1.70;99.90;;;;;;5031897;28;20040;-87
2022/03/01 02:59:24;;;;;;;17.73;10.77;;;1.70;99.90;;;;;;5024901;28;20046;-87
2022/03/01 03:01:50;;;;;;;15.43;10.10;;;1.70;99.90;;;;;;5031844;28;20030;-87
2022/03/01 03:04:15;;;;;;;17.88;10.65;;;1.70;99.90;;;;;;5033058;28;20128;-88
2022/03/01 03:06:41;;;;;;;16.60;9.65;;;1.70;99.90;;;;;;5032831;28;20041;-86
2022/03/01 03:09:07;;;;;;;16.53;9.53;;;1.70;99.90;;;;;;5017690;28;20102;-88
2022/03/01 03:11:32;;;;;;;15.70;9.73;;;1.70;99.90;;;;;;5032018;28;20059;-87
2022/03/01 03:13:58;;;;;;;16.60;10.47;;;1.70;99.90;;;;;;5029207;28;20045;-87
2022/03/01 03:16:23;;;;;;;15.47;9.83;;;1.80;99.90;;;;;;5016179;28;20037;-87
2022/03/01 03:18:49;;;;;;;16.20;9.83;;;1.80;99.90;;;;;;5025023;28;20035;-87
2022/03/01 03:21:14;;;;;;;16.10;9.80;;;1.80;99.90;;;;;;5022980;28;20036;-86
2022/03/01 03:23:40;;;;;;;15.70;9.77;;;1.80;99.90;;;;;;5002996;28;20037;-87
2022/03/01 03:26:06;;;;;;;16.27;9.80;;;1.90;99.90;;;;;;5047088;28;20560;-87
2022/03/01 03:28:31;;;;;;;14.27;9.30;;;1.90;99.90;;;;;;5030594;28;20430;-87
2022/03/01 03:30:57;;;;;;;14.37;9.43;;;1.90;99.90;;;;;;5031644;28;20045;-87
2022/03/01 03:33:22;;;;;;;20.07;9.67;;;1.90;99.90;;;;;;5009818;28;20097;-87
2022/03/01 03:35:48;;;;;;;14.60;9.90;;;1.90;99.90;;;;;;5028897;28;20083;-85
2022/03/01 03:38:14;;;;;;;15.63;9.43;;;1.90;99.90;;;;;;5027729;28;20413;-87
2022/03/01 03:40:39;;;;;;;13.20;9.57;;;1.90;99.90;;;;;;5041119;28;20064;-86
2022/03/01 03:43:05;;;;;;;15.37;9.67;;;1.90;99.90;;;;;;5027281;28;20051;-87
2022/03/01 03:45:31;;;;;;;16.57;10.00;;;1.90;99.90;;;;;;5022685;28;20072;-87
2022/03/01 03:47:56;;;;;;;18.37;10.47;;;1.90;99.90;;;;;;5014565;28;20048;-88
2022/03/01 03:50:23;;;;;;;16.87;10.53;;;1.90;99.90;;;;;;5019539;28;20095;-87
2022/03/01 03:52:49;;;;;;;17.03;10.13;;;1.90;99.90;;;;;;5031100;28;20162;-87
2022/03/01 03:55:14;;;;;;;17.13;9.80;;;1.80;99.90;;;;;;5025528;28;20171;-87
2022/03/01 03:57:40;;;;;;;15.53;10.03;;;1.90;99.90;;;;;;5018362;28;20029;-88
2022/03/01 04:00:09;;;;;;;15.87;10.43;;;1.90;99.90;;;;;;5014550;28;20029;-88
2022/03/01 04:02:34;;;;;;;15.23;10.27;;;1.90;99.90;;;;;;5013623;28;20040;-89
2022/03/01 04:05:00;;;;;;;14.37;9.97;;;1.90;99.90;;;;;;5014458;28;20418;-87
2022/03/01 04:07:26;;;;;;;15.57;9.60;;;2.10;99.90;;;;;;5046623;28;20592;-87
2022/03/01 04:09:51;;;;;;;14.63;9.87;;;1.90;99.90;;;;;;5046657;28;20032;-88
2022/03/01 04:12:17;;;;;;;18.93;9.97;;;1.90;99.90;;;;;;5033808;28;20121;-88
2022/03/01 04:14:43;;;;;;;15.93;9.77;;;1.90;99.90;;;;;;5052040;28;20041;-87
2022/03/01 04:17:09;;;;;;;17.47;9.90;;;1.80;99.90;;;;;;5049537;28;20041;-87
2022/03/01 04:19:35;;;;;;;15.00;10.03;;;1.80;99.90;;;;;;5029616;28;20502;-87
2022/03/01 04:22:01;;;;;;;16.90;10.67;;;1.80;99.90;;;;;;5024429;28;20113;-88
2022/03/01 04:24:27;;;;;;;16.17;9.83;;;1.80;99.90;;;;;;5030813;28;20116;-88
2022/03/01 04:26:52;;;;;;;17.53;11.13;;;1.80;99.90;;;;;;5016943;28;20049;-88
2022/03/01 04:29:18;;;;;;;17.90;10.53;;;1.80;99.90;;;;;;5018555;28;20029;-88
2022/03/01 04:31:44;;;;;;;16.30;10.67;;;1.80;99.90;;;;;;5024675;28;20037;-88
2022/03/01 04:34:09;;;;;;;16.83;10.33;;;1.80;99.90;;;;;;5026968;28;20036;-88
2022/03/01 04:36:35;;;;;;;15.93;10.50;;;1.70;99.90;;;;;;5033435;28;20475;-87
2022/03/01 04:39:00;;;;;;;15.90;10.60;;;1.70;99.90;;;;;;5032610;28;20033;-88
2022/03/01 04:41:26;;;;;;;15.47;10.07;;;1.70;99.90;;;;;;5033758;28;20029;-88
2022/03/01 04:43:52;;;;;;;18.23;10.83;;;1.70;99.90;;;;;;5020450;28;20496;-87
2022/03/01 04:46:18;;;;;;;16.40;10.47;;;1.70;99.90;;;;;;5028013;28;20040;-87
2022/03/01 04:48:45;;;;;;;18.53;10.83;;;1.70;99.90;;;;;;5016995;28;20045;-88
2022/03/01 04:51:11;;;;;;;17.80;11.07;;;1.70;99.90;;;;;;5049439;28;20516;-88
2022/03/01 04:53:37;;;;;;;15.97;10.50;;;1.80;99.90;;;;;;5032676;28;20045;-87
2022/03/01 04:56:02;;;;;;;19.80;10.40;;;1.70;99.90;;;;;;5005555;28;20041;-87
2022/03/01 04:58:28;;;;;;;17.07;10.20;;;1.70;99.90;;;;;;5005355;28;20033;-87
2022/03/01 05:00:55;;;;;;;16.67;10.73;;;1.90;99.90;;;;;;5033231;28;20029;-87
2022/03/01 05:03:21;;;;;;;17.73;10.70;;;1.70;99.90;;;;;;5027224;28;20083;-87
2022/03/01 05:05:47;;;;;;;16.57;10.50;;;1.80;99.90;;;;;;5010035;28;20037;-87
2022/03/01 05:08:14;;;;;;;16.60;10.90;;;1.80;99.90;;;;;;5007550;28;20097;-88
2022/03/01 05:10:39;;;;;;;17.00;11.03;;;1.80;99.90;;;;;;5042954;28;20044;-88
2022/03/01 05:13:05;;;;;;;18.07;10.93;;;1.80;99.90;;;;;;5015801;28;20042;-87
2022/03/01 05:15:31;;;;;;;16.90;10.67;;;1.80;99.90;;;;;;5018174;28;20045;-87
2022/03/01 05:17:58;;;;;;;19.53;11.93;;;1.80;99.90;;;;;;5011210;28;20036;-87
2022/03/01 05:20:25;;;;;;;17.27;11.13;;;1.80;99.90;;;;;;5026018;28;20814;-87
2022/03/01 05:22:51;;;;;;;22.70;11.00;;;1.80;99.90;;;;;;5023680;28;20533;-87
2022/03/01 05:25:18;;;;;;;16.50;11.07;;;1.80;99.90;;;;;;5029275;28;20040;-87
2022/03/01 05:27:46;;;;;;;20.10;11.47;;;1.80;99.90;;;;;;5032053;28;20072;-88
2022/03/01 05:30:13;;;;;;;19.13;11.60;;;1.80;99.90;;;;;;5028375;28;20050;-88
2022/03/01 05:32:42;;;;;;;20.50;11.37;;;1.80;99.90;;;;;;5026184;28;20071;-87
2022/03/01 05:35:09;;;;;;;19.63;11.33;;;2.00;99.90;;;;;;5000814;28;20108;-88
2022/03/01 05:37:36;;;;;;;18.03;10.33;;;1.80;99.90;;;;;;5032210;28;20216;-87
2022/03/01 05:40:02;;;;;;;18.97;11.43;;;1.80;99.90;;;;;;5033357;28;20625;-88
2022/03/01 05:42:27;;;;;;;19.47;11.43;;;1.70;99.90;;;;;;5030498;28;20044;-88
2022/03/01 05:44:55;;;;;;;19.50;11.93;;;1.70;99.90;;;;;;5032219;28;20047;-86
2022/03/01 05:47:21;;;;;;;18.97;11.70;;;1.70;99.90;;;;;;5022180;28;20128;-87
2022/03/01 05:49:47;;;;;;;17.47;11.20;;;1.70;99.90;;;;;;5030420;28;20115;-87
2022/03/01 05:52:12;;;;;;;18.27;10.93;;;1.80;99.90;;;;;;5038064;28;20037;-87
2022/03/01 05:54:38;;;;;;;20.00;10.87;;;1.70;99.90;;;;;;5042960;28;20072;-86
2022/03/01 05:57:03;;;;;;;18.00;11.70;;;1.70;99.90;;;;;;5029846;28;20048;-87
2022/03/01 05:59:29;;;;;;;18.03;11.43;;;1.70;99.90;;;;;;5029121;28;20418;-87
2022/03/01 06:01:54;;;;;;;18.73;11.60;;;1.80;99.90;;;;;;5020937;28;20037;-86
2022/03/01 06:04:20;;;;;;;19.70;11.27;;;1.80;99.90;;;;;;5034298;28;20045;-85
2022/03/01 06:06:45;;;;;;;17.57;11.70;;;1.90;99.90;;;;;;5032683;28;20117;-86
2022/03/01 06:09:11;;;;;;;19.33;11.83;;;1.90;99.90;;;;;;5030061;28;20376;-86
2022/03/01 06:11:37;;;;;;;21.47;11.47;;;1.90;99.90;;;;;;5027085;28;20045;-86
2022/03/01 06:14:03;;;;;;;18.27;11.40;;;1.90;99.90;;;;;;5040003;28;20064;-86
2022/03/01 06:16:28;;;;;;;20.87;11.43;;;1.90;99.90;;;;;;5015369;28;20068;-86
2022/03/01 06:18:54;;;;;;;21.40;12.03;;;1.90;99.90;;;;;;5015472;28;20404;-86
2022/03/01 06:21:20;;;;;;;18.17;10.97;;;1.90;99.90;;;;;;5013910;28;20041;-86
2022/03/01 06:23:46;;;;;;;18.63;12.07;;;1.90;99.90;;;;;;5014812;28;20132;-86
2022/03/01 06:26:12;;;;;;;19.10;11.80;;;1.90;99.90;;;;;;5014338;28;20077;-87
2022/03/01 06:28:38;;;;;;;19.40;12.23;;;1.90;99.90;;;;;;4998735;28;20542;-86
2022/03/01 06:31:03;;;;;;;18.50;11.57;;;1.90;99.90;;;;;;4999021;28;20073;-86
2022/03/01 06:33:29;;;;;;;18.33;11.40;;;1.90;99.90;;;;;;4998628;28;20519;-86
2022/03/01 06:35:54;;;;;;;17.77;12.00;;;2.30;99.90;;;;;;5014665;28;20041;-86
2022/03/01 06:38:20;;;;;;;21.00;12.07;;;1.90;99.90;;;;;;5014858;28;20415;-86
2022/03/01 06:40:46;;;;;;;26.87;12.37;;;1.90;99.90;;;;;;5003204;28;20347;-85
2022/03/01 06:43:11;;;;;;;22.63;11.93;;;1.90;99.90;;;;;;5030542;28;20040;-85
2022/03/01 06:45:37;;;;;;;21.90;12.80;;;1.90;99.90;;;;;;5052120;28;20040;-86
2022/03/01 06:48:02;;;;;;;22.83;11.40;;;2.00;99.90;;;;;;5018189;28;20037;-86
2022/03/01 06:50:28;;;;;;;19.97;12.20;;;2.30;99.90;;;;;;5034473;28;20124;-86
2022/03/01 06:52:54;;;;;;;17.83;11.37;;;2.00;99.90;;;;;;5018030;28;20095;-86
2022/03/01 06:55:21;;;;;;;20.53;11.93;;;2.00;99.90;;;;;;5018069;28;20040;-86
2022/03/01 06:57:47;;;;;;;21.30;12.03;;;2.10;99.90;;;;;;5034463;28;20072;-86
2022/03/01 07:00:15;;;;;;;18.73;12.00;;;2.10;99.90;;;;;;5017812;28;20091;-86
2022/03/01 07:02:41;;;;;;;18.17;11.73;;;2.20;99.90;;;;;;5034188;28;20127;-86
2022/03/01 07:05:08;;;;;;;18.87;12.37;;;2.20;99.90;;;;;;5033987;28;20087;-86
2022/03/01 07:07:34;;;;;;;21.97;12.07;;;2.30;99.90;;;;;;5029182;28;20042;-86
2022/03/01 07:10:00;;;;;;;18.73;11.80;;;2.30;99.90;;;;;;5017470;28;20045;-85
2022/03/01 07:12:25;;;;;;;18.40;12.03;;;2.40;99.90;;;;;;5003854;28;20043;-86
2022/03/01 07:14:53;;;;;;;19.83;12.20;;;2.40;99.90;;;;;;4997814;28;20037;-87
2022/03/01 07:17:19;;;;;;;20.43;11.50;;;2.40;99.90;;;;;;4997733;28;20048;-86
2022/03/01 07:19:44;;;;;;;19.63;11.87;;;2.50;99.90;;;;;;5003281;28;20090;-86
2022/03/01 07:22:10;;;;;;;19.07;12.20;;;2.50;99.90;;;;;;5017587;28;20455;-86
2022/03/01 07:24:35;;;;;;;20.00;12.40;;;2.50;99.90;;;;;;5017644;28;20047;-86
2022/03/01 07:27:01;;;;;;;16.73;11.70;;;2.60;99.90;;;;;;5016476;28;20043;-85
2022/03/01 07:29:27;;;;;;;19.57;12.43;;;2.60;99.90;;;;;;5030901;28;20032;-85
2022/03/01 07:31:53;;;;;;;19.00;10.90;;;2.60;99.90;;;;;;5033003;28;20041;-87
2022/03/01 07:34:18;;;;;;;18.40;12.32;;;2.70;99.90;;;;;;5009443;28;20033;-87
2022/03/01 07:36:44;;;;;;;21.95;12.13;;;2.70;99.90;;;;;;5022154;28;20037;-87
2022/03/01 07:39:10;;;;;;;19.50;12.27;;;2.80;99.90;;;;;;5025222;28;20094;-86
2022/03/01 07:41:35;;;;;;;19.30;12.13;;;2.80;99.90;;;;;;5019984;28;20042;-86
2022/03/01 07:44:01;;;;;;;20.20;12.63;;;2.80;99.90;;;;;;5019916;28;20041;-87
2022/03/01 07:46:26;;;;;;;20.07;12.27;;;2.80;99.90;;;;;;5009781;28;20124;-87
2022/03/01 07:48:52;;;;;;;23.38;12.32;;;2.80;99.90;;;;;;5023480;28;20047;-86
2022/03/01 07:51:18;;;;;;;21.47;12.27;;;2.90;99.90;;;;;;5014118;28;20053;-85
2022/03/01 07:53:43;;;;;;;19.55;11.55;;;2.90;99.90;;;;;;5013612;28;20038;-84
2022/03/01 07:56:09;;;;;;;20.27;13.27;;;3.00;99.90;;;;;;5025858;28;20041;-86
2022/03/01 07:58:34;;;;;;;21.27;12.20;;;3.00;99.90;;;;;;5031225;28;20032;-86
2022/03/01 08:01:00;;;;;;;20.67;11.95;;;3.00;99.90;;;;;;5006799;28;20030;-86
2022/03/01 08:03:25;;;;;;;18.38;12.30;;;3.10;99.90;;;;;;5000478;28;20052;-86
2022/03/01 08:05:51;;;;;;;21.50;12.27;;;3.10;99.90;;;;;;5022081;28;20090;-86
2022/03/01 08:08:17;;;;;;;20.48;12.57;;;3.10;99.90;;;;;;5016445;28;20424;-86
2022/03/01 08:10:43;;;;;;;19.48;12.32;;;3.30;99.90;;;;;;5046491;28;20044;-86
2022/03/01 08:13:09;;;;;;;17.35;11.60;;;3.30;99.90;;;;;;5050175;28;20045;-86
2022/03/01 08:15:37;;;;;;;19.23;11.68;;;3.20;99.90;;;;;;5033129;28;20044;-87
2022/03/01 08:18:02;;;;;;;19.10;12.38;;;3.20;99.90;;;;;;5044046;28;20446;-86
2022/03/01 08:20:28;;;;;;;23.77;13.57;;;3.30;99.90;;;;;;5030476;28;20080;-86
2022/03/01 08:22:54;;;;;;;18.60;11.80;;;3.30;99.90;;;;;;5030089;28;20087;-86
2022/03/01 08:25:19;;;;;;;19.02;13.02;;;3.40;99.90;;;;;;5020276;28;20104;-86
2022/03/01 08:27:46;;;;;;;18.83;12.40;;;3.40;99.90;;;;;;5035322;28;20040;-86
2022/03/01 08:30:12;;;;;;;18.65;11.73;;;3.50;99.90;;;;;;5032565;28;20033;-86
2022/03/01 08:32:37;;;;;;;19.00;12.73;;;3.50;99.90;;;;;;5029786;28;20746;-86
2022/03/01 08:35:04;;;;;;;20.63;13.02;;;3.60;99.90;;;;;;5025504;28;20041;-86
2022/03/01 08:37:30;;;;;;;18.15;11.82;;;3.70;99.90;;;;;;5026853;28;20037;-86
2022/03/01 08:39:55;;;;;;;21.92;12.57;;;3.70;99.90;;;;;;5024634;28;20399;-86
2022/03/01 08:42:21;;;;;;;18.65;12.60;;;3.80;99.90;;;;;;5020618;28;20045;-85
2022/03/01 08:44:46;;;;;;;19.08;11.80;;;3.90;99.90;;;;;;5029472;28;20872;-86
2022/03/01 08:47:12;;;;;;;22.63;12.70;;;4.00;99.90;;;;;;5005252;28;20057;-86
2022/03/01 08:49:37;;;;;;;18.70;12.13;;;4.10;99.90;;;;;;5022898;28;20042;-86
2022/03/01 08:52:03;;;;;;;18.95;12.75;;;4.20;99.90;;;;;;5031332;28;20053;-86
2022/03/01 08:54:29;;;;;;;20.42;13.60;;;4.30;99.90;;;;;;5034233;28;20373;-86
2022/03/01 08:56:54;;;;;;;18.20;12.57;;;4.40;99.90;;;;;;5036512;28;20041;-86
2022/03/01 08:59:21;;;;;;;22.80;13.25;;;4.50;99.90;;;;;;5036675;28;20039;-86
2022/03/01 09:01:47;;;;;;;22.48;13.00;;;4.60;99.90;;;;;;5020353;28;20372;-87
2022/03/01 09:04:12;;;;;;;20.23;13.20;;;4.80;99.90;;;;;;5036144;28;20196;-86
2022/03/01 09:06:38;;;;;;;18.65;12.57;;;4.90;99.90;;;;;;5036755;28;20076;-86
2022/03/01 09:09:04;;;;;;;22.05;13.02;;;5.00;99.90;;;;;;5019879;28;20041;-86
2022/03/01 09:11:30;;;;;;;18.42;12.80;;;5.10;99.90;;;;;;5022082;28;20041;-85
2022/03/01 09:13:55;;;;;;;19.45;13.35;;;5.30;99.90;;;;;;5036082;28;20438;-86
2022/03/01 09:16:21;;;;;;;20.65;12.93;;;5.30;99.90;;;;;;5036438;28;20037;-87
2022/03/01 09:18:47;;;;;;;20.85;13.38;;;5.40;99.90;;;;;;5036178;28;20040;-87
2022/03/01 09:21:12;;;;;;;21.40;13.35;;;5.40;99.90;;;;;;5019905;28;20041;-86
2022/03/01 09:23:38;;;;;;;21.75;13.50;;;5.50;99.90;;;;;;5036311;28;20041;-86
2022/03/01 09:26:03;;;;;;;19.38;13.18;;;5.50;99.90;;;;;;5019386;28;20721;-87
2022/03/01 09:28:29;;;;;;;23.25;14.10;;;5.60;99.90;;;;;;5036254;28;20057;-86
2022/03/01 09:30:55;;;;;;;23.77;13.15;;;5.60;99.90;;;;;;5036044;28;20040;-86
2022/03/01 09:33:21;;;;;;;18.70;13.00;;;5.60;99.90;;;;;;5019457;28;20041;-87
2022/03/01 09:35:47;;;;;;;20.33;13.93;;;5.60;99.90;;;;;;5035600;28;20128;-87
2022/03/01 09:38:13;;;;;;;18.30;13.05;;;5.60;99.90;;;;;;5035908;28;20044;-87
2022/03/01 09:40:38;;;;;;;24.65;14.00;;;5.60;99.90;;;;;;5031668;28;20098;-85
2022/03/01 09:43:04;;;;;;;20.92;14.45;;;5.60;99.90;;;;;;5017040;28;20127;-86
2022/03/01 09:45:30;;;;;;;22.52;15.02;;;5.50;99.90;;;;;;5031106;28;20052;-86
2022/03/01 09:47:56;;;;;;;22.65;14.73;;;5.50;99.90;;;;;;5003621;28;20498;-85
2022/03/01 09:50:27;;;;;;;22.00;13.77;;;5.50;99.90;;;;;;5013532;28;20029;-86
2022/03/01 09:52:54;;;;;;;21.08;14.85;;;5.50;99.90;;;;;;5024931;28;20050;-86
2022/03/01 09:55:21;;;;;;;19.10;13.02;;;5.50;99.90;;;;;;5017697;28;20450;-86
2022/03/01 09:57:47;;;;;;;21.70;14.90;;;5.60;99.90;;;;;;5012555;28;20037;-86
2022/03/01 10:00:13;;;;;;;21.73;14.20;;;5.60;99.90;;;;;;5029015;28;20116;-86
2022/03/01 10:02:41;;;;;;;22.02;13.32;;;5.70;99.90;;;;;;5033773;28;20071;-85
2022/03/01 10:05:08;;;;;;;20.20;14.00;;;5.70;99.90;;;;;;5018899;28;20406;-87
2022/03/01 10:07:34;;;;;;;18.60;13.40;;;5.80;99.90;;;;;;5012895;28;20503;-86
2022/03/01 10:10:06;;;;;;;23.05;14.30;;;6.00;99.90;;;;;;5042081;28;20041;-87
2022/03/01 10:12:32;;;;;;;22.23;13.82;;;6.10;99.90;;;;;;5017240;28;20041;-86
2022/03/01 10:15:07;;;;;;;20.73;13.88;;;6.30;99.90;;;;;;5010746;28;20037;-86
2022/03/01 10:17:41;;;;;;;21.85;14.23;;;6.40;99.90;;;;;;5013784;28;20047;-86
2022/03/01 10:20:13;;;;;;;23.23;13.00;;;6.50;99.90;;;;;;5035725;28;20037;-86
2022/03/01 10:22:44;;;;;;;22.35;14.38;;;6.60;99.90;;;;;;5011386;28;20053;-86
2022/03/01 10:25:11;;;;;;;21.02;14.00;;;6.70;99.90;;;;;;5008663;28;20428;-86
2022/03/01 10:27:37;;;;;;;18.25;13.32;;;6.80;99.90;;;;;;5016697;28;20036;-86
2022/03/01 10:30:05;;;;;;;18.63;12.65;;;6.90;99.90;;;;;;5014076;28;20111;-85
2022/03/01 10:32:32;;;;;;;20.08;12.85;;;7.00;99.90;;;;;;5001947;28;20052;-87
2022/03/01 10:35:05;;;;;;;18.83;13.38;;;7.00;99.90;;;;;;5017598;28;20072;-86
2022/03/01 10:37:33;;;;;;;22.97;13.80;;;6.90;99.90;;;;;;5028616;28;20515;-86
2022/03/01 10:40:19;;;;;;;18.48;12.70;;;7.00;99.90;;;;;;5001866;28;20670;-86
2022/03/01 10:42:57;;;;;;;21.10;13.50;;;7.00;99.90;;;;;;5008113;28;20143;-86
2022/03/01 10:45:51;;;;;;;21.90;13.57;;;7.10;99.90;;;;;;5030108;28;20044;-86
2022/03/01 10:48:37;;;;;;;20.83;12.57;;;7.20;99.90;;;;;;5015547;28;20483;-86
2022/03/01 10:51:07;;;;;;;20.10;13.60;;;7.20;99.90;;;;;;4998893;28;20439;-85
2022/03/01 10:53:35;;;;;;;22.13;13.35;;;7.20;99.90;;;;;;5030809;28;20049;-87
2022/03/01 10:56:06;;;;;;;19.23;12.60;;;7.20;99.90;;;;;;5017660;28;20029;-86
2022/03/01 10:58:33;;;;;;;19.73;13.30;;;7.20;99.90;;;;;;5034530;28;20105;-86
2022/03/01 11:00:59;;;;;;;20.98;13.75;;;7.20;99.90;;;;;;5034523;28;20045;-86
2022/03/01 11:03:24;;;;;;;22.52;13.80;;;7.20;99.90;;;;;;5025854;28;20037;-86
2022/03/01 11:05:53;;;;;;;20.02;13.55;;;7.20;99.90;;;;;;4997472;28;20106;-86
2022/03/01 11:08:22;;;;;;;19.83;13.23;;;7.20;99.90;;;;;;4997004;28;20041;-86
2022/03/01 11:10:49;;;;;;;21.33;13.40;;;7.30;99.90;;;;;;5014184;28;20053;-86
2022/03/01 11:13:19;;;;;;;20.58;14.00;;;7.30;99.90;;;;;;5013936;28;20046;-86
2022/03/01 11:16:10;;;;;;;19.27;13.32;;;7.40;99.90;;;;;;5013860;28;20041;-86
2022/03/01 11:19:03;;;;;;;20.27;12.32;;;7.40;99.90;;;;;;5014471;28;20088;-86
2022/03/01 11:21:30;;;;;;;20.77;13.50;;;7.40;99.90;;;;;;5014443;28;20037;-86
2022/03/01 11:23:57;;;;;;;20.88;14.02;;;7.50;99.90;;;;;;4997982;28;20045;-87
2022/03/01 11:26:22;;;;;;;19.98;13.45;;;7.50;99.90;;;;;;5014407;28;20055;-85
2022/03/01 11:28:56;;;;;;;20.70;13.63;;;7.60;99.90;;;;;;4997994;28;20045;-86
2022/03/01 11:31:27;;;;;;;20.50;12.80;;;7.60;99.90;;;;;;5014159;28;20048;-86
2022/03/01 11:34:01;;;;;;;19.67;13.20;;;7.60;99.90;;;;;;5013709;28;20041;-86
2022/03/01 11:36:29;;;;;;;19.30;13.27;;;7.70;99.90;;;;;;5014187;28;20467;-85
2022/03/01 11:39:07;;;;;;;25.02;13.63;;;7.80;99.90;;;;;;5013967;28;20038;-86
2022/03/01 11:41:43;;;;;;;21.35;13.48;;;7.80;99.90;;;;;;4997890;28;20045;-87
2022/03/01 11:44:10;;;;;;;22.23;14.32;;;7.80;99.90;;;;;;4997599;28;20037;-86
2022/03/01 11:46:41;;;;;;;18.23;13.32;;;7.70;99.90;;;;;;5014192;28;20041;-86
2022/03/01 11:49:07;;;;;;;19.85;13.43;;;7.60;99.90;;;;;;4997576;28;20445;-86
2022/03/01 11:51:45;;;;;;;19.05;13.02;;;7.50;99.90;;;;;;4997524;28;20045;-86
2022/03/01 11:54:15;;;;;;;21.20;13.70;;;7.50;99.90;;;;;;4997403;28;20053;-86
2022/03/01 11:56:42;;;;;;;23.55;14.73;;;7.40;99.90;;;;;;4997689;28;20525;-86
2022/03/01 11:59:10;;;;;;;20.75;13.65;;;7.40;99.90;;;;;;4997486;28;20507;-86
2022/03/01 12:01:37;;;;;;;20.73;13.75;;;7.40;99.90;;;;;;5013738;28;20046;-86
2022/03/01 12:04:05;;;;;;;22.33;14.35;;;7.40;99.90;;;;;;5013646;28;20102;-85
2022/03/01 12:06:34;;;;;;;19.60;13.90;;;7.30;99.90;;;;;;4997458;28;20620;-86
2022/03/01 12:09:03;;;;;;;21.67;13.73;;;7.20;99.90;;;;;;5013647;28;20042;-85
2022/03/01 12:11:33;;;;;;;29.63;14.38;;;7.20;99.90;;;;;;4997260;28;20064;-86
2022/03/01 12:14:08;;;;;;;21.05;14.27;;;7.20;99.90;;;;;;4997234;28;20383;-86
2022/03/01 12:16:34;;;;;;;22.75;14.35;;;7.20;99.90;;;;;;5015182;28;20470;-86
2022/03/01 12:19:19;;;;;;;22.25;14.65;;;7.20;99.90;;;;;;4996130;28;20123;-86
2022/03/01 12:21:50;;;;;;;21.65;14.57;;;7.30;99.90;;;;;;5013762;28;20069;-86
2022/03/01 12:24:17;;;;;;;23.25;14.43;;;7.40;99.90;;;;;;5015118;28;20080;-86
2022/03/01 12:26:50;;;;;;;21.95;14.10;;;7.50;99.90;;;;;;5017294;28;20517;-85
2022/03/01 12:29:19;;;;;;;23.93;15.53;;;7.50;99.90;;;;;;5000787;28;20041;-86
2022/03/01 12:31:58;;;;;;;20.15;13.93;;;7.60;99.90;;;;;;5000951;28;20123;-85
2022/03/01 12:34:29;;;;;;;23.92;14.98;;;7.70;99.90;;;;;;5000466;28;20037;-86
2022/03/01 12:36:58;;;;;;;22.15;15.02;;;7.80;99.90;;;;;;5017179;28;20049;-86
2022/03/01 12:39:27;;;;;;;23.13;15.05;;;7.90;99.90;;;;;;5017326;28;20421;-85